createdAt,value
2019-01-08T00:01:54.206Z,1.30
2019-01-08T00:04:20.427Z,1.30
2019-01-08T00:06:46.634Z,1.60
2019-01-08T00:09:12.866Z,1.60
2019-01-08T00:11:39.061Z,1.57
2019-01-08T00:14:05.281Z,2.10
2019-01-08T00:16:31.486Z,2.10
2019-01-08T00:18:58.379Z,2.13
2019-01-08T00:21:24.714Z,2.53
2019-01-08T00:23:51.534Z,2.93
2019-01-08T00:26:17.773Z,4.50
2019-01-08T00:28:44.019Z,3.87
2019-01-08T00:31:10.225Z,4.53
2019-01-08T00:33:36.434Z,5.33
2019-01-08T00:36:02.677Z,5.70
2019-01-08T00:38:29.146Z,6.47
2019-01-08T00:40:55.370Z,7.33
2019-01-08T00:43:21.577Z,7.47
2019-01-08T00:45:47.795Z,9.00
2019-01-08T00:48:14.006Z,8.97
2019-01-08T00:50:40.238Z,9.00
2019-01-08T00:53:06.479Z,8.87
2019-01-08T00:55:32.694Z,7.03
2019-01-08T00:57:58.902Z,6.20
2019-01-08T01:00:25.132Z,6.87
2019-01-08T01:02:51.335Z,7.30
2019-01-08T01:05:17.678Z,7.30
2019-01-08T01:07:43.962Z,6.97
2019-01-08T01:10:10.175Z,8.90
2019-01-08T01:12:36.389Z,7.13
2019-01-08T01:15:03.698Z,4.97
2019-01-08T01:17:29.913Z,6.17
2019-01-08T01:19:56.122Z,4.60
2019-01-08T01:22:22.454Z,5.93
2019-01-08T01:24:48.665Z,6.50
2019-01-08T01:27:14.958Z,8.27
2019-01-08T01:29:41.171Z,7.30
2019-01-08T01:32:07.388Z,8.47
2019-01-08T01:34:33.606Z,11.03
2019-01-08T01:36:59.827Z,8.23
2019-01-08T01:39:26.128Z,13.07
2019-01-08T01:41:52.473Z,13.17
2019-01-08T01:44:18.674Z,12.13
2019-01-08T01:46:44.905Z,9.20
2019-01-08T01:49:11.114Z,11.67
2019-01-08T01:51:37.323Z,13.37
2019-01-08T01:54:03.557Z,12.80
2019-01-08T01:56:29.761Z,10.43
2019-01-08T01:58:55.983Z,13.07
2019-01-08T02:01:22.187Z,10.97
2019-01-08T02:03:48.409Z,13.80
2019-01-08T02:06:14.618Z,12.60
2019-01-08T02:08:40.835Z,11.20
2019-01-08T02:11:07.055Z,12.10
2019-01-08T02:13:33.278Z,10.53
2019-01-08T02:15:59.490Z,12.13
2019-01-08T02:18:25.698Z,10.67
2019-01-08T02:20:51.921Z,13.73
2019-01-08T02:23:18.127Z,14.50
2019-01-08T02:25:44.350Z,10.97
2019-01-08T02:28:10.554Z,10.93
2019-01-08T02:30:36.938Z,15.73
2019-01-08T02:33:03.231Z,17.03
2019-01-08T02:35:29.452Z,17.13
2019-01-08T02:37:55.647Z,13.70
2019-01-08T02:40:21.875Z,15.20
2019-01-08T02:42:48.073Z,13.27
2019-01-08T02:45:14.295Z,15.10
2019-01-08T02:47:40.547Z,17.23
2019-01-08T02:50:06.879Z,17.93
2019-01-08T02:52:33.190Z,12.10
2019-01-08T02:54:59.402Z,13.57
2019-01-08T02:57:25.614Z,16.13
2019-01-08T02:59:54.833Z,16.73
2019-01-08T03:02:21.092Z,16.50
2019-01-08T03:04:47.318Z,19.13
2019-01-08T03:07:13.522Z,13.07
2019-01-08T03:09:39.722Z,14.87
2019-01-08T03:12:05.943Z,13.87
2019-01-08T03:14:32.145Z,15.80
2019-01-08T03:16:58.374Z,19.43
2019-01-08T03:19:24.583Z,14.87
2019-01-08T03:21:50.810Z,11.70
2019-01-08T03:24:17.016Z,12.93
2019-01-08T03:26:43.282Z,9.67
2019-01-08T03:29:09.501Z,12.50
2019-01-08T03:31:35.695Z,10.70
2019-01-08T03:34:01.909Z,17.17
2019-01-08T03:36:28.166Z,15.67
2019-01-08T03:38:54.489Z,13.10
2019-01-08T03:41:20.681Z,12.40
2019-01-08T03:43:46.919Z,12.80
2019-01-08T03:46:13.214Z,14.07
2019-01-08T03:48:39.413Z,17.97
2019-01-08T03:51:05.669Z,11.37
2019-01-08T03:53:33.208Z,12.93
2019-01-08T03:55:59.602Z,13.80
2019-01-08T03:58:25.806Z,14.10
2019-01-08T04:00:52.021Z,13.40
2019-01-08T04:03:18.222Z,17.33
2019-01-08T04:05:44.443Z,13.33
2019-01-08T04:08:10.638Z,17.43
2019-01-08T04:10:49.210Z,10.97
2019-01-08T04:13:15.402Z,13.23
2019-01-08T04:15:41.631Z,15.37
2019-01-08T04:18:07.825Z,19.97
2019-01-08T04:20:34.071Z,20.00
2019-01-08T04:23:00.307Z,14.13
2019-01-08T04:25:26.507Z,16.87
2019-01-08T04:27:52.726Z,14.53
2019-01-08T04:30:18.930Z,15.90
2019-01-08T04:32:45.154Z,12.80
2019-01-08T04:35:11.350Z,22.10
2019-01-08T04:37:37.566Z,15.60
2019-01-08T04:40:04.869Z,16.83
2019-01-08T04:42:31.094Z,14.70
2019-01-08T04:44:57.289Z,16.23
2019-01-08T04:47:23.491Z,16.47
2019-01-08T04:49:49.715Z,16.57
2019-01-08T04:52:15.935Z,16.33
2019-01-08T04:54:42.292Z,18.57
2019-01-08T04:57:08.490Z,16.30
2019-01-08T04:59:34.714Z,21.37
2019-01-08T05:02:00.915Z,20.60
2019-01-08T05:04:27.127Z,14.47
2019-01-08T05:06:56.082Z,16.67
2019-01-08T05:09:22.282Z,13.43
2019-01-08T05:11:48.502Z,12.60
2019-01-08T05:14:14.715Z,14.03
2019-01-08T05:16:40.944Z,21.73
2019-01-08T05:19:07.155Z,17.27
2019-01-08T05:21:33.375Z,17.00
2019-01-08T05:23:59.574Z,18.90
2019-01-08T05:26:25.798Z,13.40
2019-01-08T05:28:52.007Z,16.17
2019-01-08T05:31:18.227Z,17.37
2019-01-08T05:33:44.418Z,17.10
2019-01-08T05:36:10.666Z,15.73
2019-01-08T05:38:36.871Z,16.13
2019-01-08T05:41:03.091Z,16.80
2019-01-08T05:43:29.286Z,16.43
2019-01-08T05:46:01.373Z,17.77
2019-01-08T05:48:27.570Z,14.60
2019-01-08T05:50:53.810Z,14.83
2019-01-08T05:53:20.014Z,13.17
2019-01-08T05:55:46.215Z,19.77
2019-01-08T05:58:12.440Z,20.63
2019-01-08T06:00:38.718Z,17.87
2019-01-08T06:03:05.040Z,16.43
2019-01-08T06:05:31.234Z,14.47
2019-01-08T06:07:57.453Z,21.43
2019-01-08T06:10:23.654Z,18.07
2019-01-08T06:12:49.870Z,19.13
2019-01-08T06:15:16.078Z,17.43
2019-01-08T06:17:42.468Z,14.80
2019-01-08T06:20:08.684Z,18.27
2019-01-08T06:22:34.979Z,16.43
2019-01-08T06:25:01.190Z,19.43
2019-01-08T06:27:27.607Z,19.90
2019-01-08T06:29:54.078Z,14.73
2019-01-08T06:32:20.278Z,17.87
2019-01-08T06:34:46.491Z,20.13
2019-01-08T06:37:12.694Z,18.50
2019-01-08T06:39:38.915Z,15.20
2019-01-08T06:42:05.183Z,19.67
2019-01-08T06:44:31.414Z,13.83
2019-01-08T06:46:57.631Z,15.83
2019-01-08T06:49:23.849Z,12.37
2019-01-08T06:51:50.204Z,16.43
2019-01-08T06:54:16.550Z,15.47
2019-01-08T06:56:42.772Z,16.70
2019-01-08T06:59:08.975Z,21.73
2019-01-08T07:01:35.221Z,13.53
2019-01-08T07:04:01.423Z,18.10
2019-01-08T07:06:27.646Z,19.43
2019-01-08T07:08:53.911Z,14.97
2019-01-08T07:11:20.134Z,18.43
2019-01-08T07:13:46.341Z,17.20
2019-01-08T07:16:12.564Z,14.87
2019-01-08T07:18:38.762Z,13.77
2019-01-08T07:21:04.977Z,18.60
2019-01-08T07:23:31.203Z,16.40
2019-01-08T07:25:57.404Z,17.40
2019-01-08T07:28:23.732Z,20.13
2019-01-08T07:30:49.934Z,17.57
2019-01-08T07:33:16.228Z,17.13
2019-01-08T07:35:42.453Z,18.37
2019-01-08T07:38:08.675Z,13.90
2019-01-08T07:40:34.874Z,21.33
2019-01-08T07:43:01.121Z,16.57
2019-01-08T07:45:27.335Z,20.17
2019-01-08T07:47:53.550Z,22.50
2019-01-08T07:50:19.754Z,16.30
2019-01-08T07:52:45.985Z,16.17
2019-01-08T07:55:12.183Z,12.80
2019-01-08T07:57:38.409Z,18.23
2019-01-08T08:00:06.215Z,17.83
2019-01-08T08:02:32.430Z,13.00
2019-01-08T08:04:58.625Z,17.77
2019-01-08T08:07:24.845Z,17.70
2019-01-08T08:09:51.290Z,17.90
2019-01-08T08:12:17.515Z,22.80
2019-01-08T08:14:43.715Z,22.60
2019-01-08T08:17:09.930Z,22.33
2019-01-08T08:19:36.144Z,20.83
2019-01-08T08:22:02.386Z,19.33
2019-01-08T08:24:28.603Z,21.97
2019-01-08T08:26:54.798Z,15.63
2019-01-08T08:29:21.022Z,18.27
2019-01-08T08:31:47.226Z,19.17
2019-01-08T08:34:13.443Z,27.50
2019-01-08T08:36:39.654Z,16.43
2019-01-08T08:39:05.875Z,14.90
2019-01-08T08:41:32.191Z,15.93
2019-01-08T08:43:58.406Z,14.43
2019-01-08T08:46:24.617Z,16.40
2019-01-08T08:48:50.843Z,15.50
2019-01-08T08:51:17.068Z,14.77
2019-01-08T08:53:43.270Z,14.73
2019-01-08T08:56:09.660Z,15.83
2019-01-08T08:58:35.864Z,15.33
2019-01-08T09:01:06.822Z,16.70
2019-01-08T09:03:39.041Z,14.20
2019-01-08T09:06:05.257Z,11.43
2019-01-08T09:08:31.461Z,19.43
2019-01-08T09:10:57.682Z,15.77
2019-01-08T09:13:23.882Z,19.77
2019-01-08T09:15:50.419Z,14.93
2019-01-08T09:18:16.627Z,13.13
2019-01-08T09:20:43.133Z,11.30
2019-01-08T09:23:21.338Z,13.97
2019-01-08T09:25:47.616Z,19.20
2019-01-08T09:28:13.970Z,14.03
2019-01-08T09:30:40.190Z,16.10
2019-01-08T09:33:06.382Z,16.07
2019-01-08T09:35:32.582Z,16.07
2019-01-08T09:37:58.863Z,17.33
2019-01-08T09:40:25.067Z,15.17
2019-01-08T09:42:51.296Z,16.53
2019-01-08T09:45:17.490Z,17.17
2019-01-08T09:47:43.934Z,14.80
2019-01-08T09:50:10.134Z,16.13
2019-01-08T09:52:36.636Z,24.03
2019-01-08T09:55:03.887Z,17.10
2019-01-08T09:57:41.878Z,13.80
2019-01-08T10:00:08.486Z,14.83
2019-01-08T10:02:34.726Z,11.30
2019-01-08T10:05:00.927Z,15.83
2019-01-08T10:07:27.134Z,12.13
2019-01-08T10:09:53.360Z,10.13
2019-01-08T10:12:19.867Z,11.43
2019-01-08T10:14:46.082Z,10.83
2019-01-08T10:17:12.301Z,14.13
2019-01-08T10:19:38.610Z,12.60
2019-01-08T10:22:04.807Z,12.23
2019-01-08T10:24:31.031Z,17.20
2019-01-08T10:26:57.230Z,11.83
2019-01-08T10:29:23.455Z,12.00
2019-01-08T10:31:49.675Z,12.00
2019-01-08T10:34:15.974Z,8.93
2019-01-08T10:36:42.190Z,11.27
2019-01-08T10:39:08.402Z,14.33
2019-01-08T10:41:34.623Z,12.33
2019-01-08T10:44:01.150Z,11.40
2019-01-08T10:46:27.366Z,13.47
2019-01-08T10:48:53.595Z,9.80
2019-01-08T10:51:19.827Z,9.10
2019-01-08T10:53:46.026Z,12.20
2019-01-08T10:56:12.294Z,10.20
2019-01-08T10:58:38.963Z,13.20
2019-01-08T11:01:05.278Z,12.30
2019-01-08T11:03:31.502Z,12.77
2019-01-08T11:05:57.702Z,9.67
2019-01-08T11:08:23.932Z,10.90
2019-01-08T11:10:50.135Z,16.20
2019-01-08T11:13:16.351Z,11.90
2019-01-08T11:15:42.563Z,12.53
2019-01-08T11:18:08.784Z,16.90
2019-01-08T11:20:34.983Z,17.23
2019-01-08T11:23:01.202Z,13.83
2019-01-08T11:25:27.423Z,16.37
2019-01-08T11:27:53.640Z,14.43
2019-01-08T11:30:19.838Z,15.83
2019-01-08T11:32:46.042Z,15.53
2019-01-08T11:35:12.261Z,12.63
2019-01-08T11:37:38.470Z,18.23
2019-01-08T11:40:06.533Z,17.20
2019-01-08T11:42:32.741Z,12.07
2019-01-08T11:44:58.983Z,12.77
2019-01-08T11:47:25.186Z,17.33
2019-01-08T11:49:51.410Z,19.03
2019-01-08T11:52:17.616Z,9.90
2019-01-08T11:54:43.835Z,11.37
2019-01-08T11:57:10.038Z,14.03
2019-01-08T11:59:36.262Z,13.13
2019-01-08T12:02:02.769Z,12.87
2019-01-08T12:04:29.179Z,12.93
2019-01-08T12:06:55.474Z,11.70
2019-01-08T12:09:21.679Z,17.57
2019-01-08T12:11:47.914Z,13.80
2019-01-08T12:14:14.111Z,11.83
2019-01-08T12:16:40.433Z,15.13
2019-01-08T12:19:06.643Z,16.63
2019-01-08T12:21:32.871Z,9.67
2019-01-08T12:23:59.455Z,12.67
2019-01-08T12:26:25.689Z,9.63
2019-01-08T12:28:52.214Z,10.33
2019-01-08T12:31:18.426Z,10.40
2019-01-08T12:33:44.655Z,8.47
2019-01-08T12:36:10.863Z,9.90
2019-01-08T12:38:37.086Z,13.20
2019-01-08T12:41:03.290Z,12.17
2019-01-08T12:43:29.546Z,8.80
2019-01-08T12:45:55.754Z,16.10
2019-01-08T12:48:21.994Z,14.67
2019-01-08T12:50:48.199Z,16.63
2019-01-08T12:53:14.419Z,16.80
2019-01-08T12:55:40.918Z,16.20
2019-01-08T12:58:07.138Z,15.27
2019-01-08T13:00:33.338Z,11.83
2019-01-08T13:02:59.558Z,12.67
2019-01-08T13:05:25.791Z,14.43
2019-01-08T13:07:52.010Z,16.53
2019-01-08T13:10:18.219Z,13.70
2019-01-08T13:12:44.726Z,11.93
2019-01-08T13:15:11.146Z,17.07
2019-01-08T13:17:37.398Z,18.07
2019-01-08T13:20:05.939Z,12.03
2019-01-08T13:22:32.270Z,12.30
2019-01-08T13:24:58.483Z,16.43
2019-01-08T13:27:24.686Z,12.23
2019-01-08T13:29:50.907Z,15.23
2019-01-08T13:32:23.049Z,15.03
2019-01-08T13:34:45.251Z,21.70
2019-01-08T13:37:11.459Z,17.93
2019-01-08T13:39:37.682Z,20.93
2019-01-08T13:42:03.892Z,17.83
2019-01-08T13:44:30.155Z,21.00
2019-01-08T13:46:56.354Z,16.50
2019-01-08T13:49:22.778Z,13.60
2019-01-08T13:51:48.988Z,19.37
2019-01-08T13:54:15.219Z,25.40
2019-01-08T13:56:41.432Z,17.93
2019-01-08T13:59:07.654Z,20.00
2019-01-08T14:01:33.854Z,17.40
2019-01-08T14:04:00.058Z,13.00
2019-01-08T14:06:26.274Z,17.60
2019-01-08T14:08:52.479Z,16.70
2019-01-08T14:11:18.708Z,14.10
2019-01-08T14:13:44.933Z,17.57
2019-01-08T14:16:11.155Z,10.53
2019-01-08T14:18:37.358Z,18.43
2019-01-08T14:21:03.583Z,16.87
2019-01-08T14:23:29.891Z,14.53
2019-01-08T14:25:56.231Z,19.60
2019-01-08T14:28:22.477Z,13.27
2019-01-08T14:30:48.730Z,19.23
2019-01-08T14:33:14.955Z,11.90
2019-01-08T14:35:41.159Z,16.03
2019-01-08T14:38:07.374Z,21.00
2019-01-08T14:40:33.583Z,16.80
2019-01-08T14:42:59.792Z,19.50
2019-01-08T14:45:26.018Z,14.33
2019-01-08T14:47:52.234Z,13.20
2019-01-08T14:50:18.438Z,14.63
2019-01-08T14:52:44.662Z,13.40
2019-01-08T14:55:11.065Z,13.13
2019-01-08T14:57:37.288Z,18.23
2019-01-08T15:00:04.890Z,13.90
2019-01-08T15:02:31.110Z,17.50
2019-01-08T15:04:58.039Z,19.10
2019-01-08T15:07:24.599Z,21.77
2019-01-08T15:09:51.002Z,12.00
2019-01-08T15:12:17.205Z,15.73
2019-01-08T15:14:43.422Z,13.10
2019-01-08T15:17:09.634Z,13.07
2019-01-08T15:19:35.856Z,17.17
2019-01-08T15:22:02.058Z,17.43
2019-01-08T15:24:28.278Z,14.93
2019-01-08T15:26:54.484Z,19.27
2019-01-08T15:29:20.712Z,19.67
2019-01-08T15:31:47.113Z,17.13
2019-01-08T15:34:13.419Z,13.90
2019-01-08T15:36:39.626Z,15.07
2019-01-08T15:39:05.851Z,18.43
2019-01-08T15:41:32.055Z,14.03
2019-01-08T15:43:58.375Z,16.10
2019-01-08T15:46:24.830Z,17.63
2019-01-08T15:48:51.058Z,20.07
2019-01-08T15:51:17.250Z,15.47
2019-01-08T15:53:43.466Z,15.17
2019-01-08T15:56:09.669Z,12.37
2019-01-08T15:58:35.893Z,9.70
2019-01-08T16:01:02.351Z,8.10
2019-01-08T16:03:28.568Z,15.37
2019-01-08T16:05:54.789Z,8.97
2019-01-08T16:08:21.003Z,9.30
2019-01-08T16:10:47.228Z,14.23
2019-01-08T16:13:13.434Z,9.83
2019-01-08T16:15:39.675Z,13.07
2019-01-08T16:18:05.889Z,12.30
2019-01-08T16:20:32.302Z,12.53
2019-01-08T16:22:58.586Z,12.23
2019-01-08T16:25:26.634Z,16.23
2019-01-08T16:27:52.863Z,14.07
2019-01-08T16:30:20.211Z,11.40
2019-01-08T16:32:46.771Z,15.27
2019-01-08T16:35:12.979Z,15.20
2019-01-08T16:37:40.132Z,12.10
2019-01-08T16:40:08.163Z,10.97
2019-01-08T16:42:34.372Z,14.70
2019-01-08T16:45:00.760Z,17.97
2019-01-08T16:47:27.003Z,11.57
2019-01-08T16:49:53.283Z,20.00
2019-01-08T16:52:19.519Z,16.37
2019-01-08T16:54:45.720Z,17.07
2019-01-08T16:57:11.974Z,15.47
2019-01-08T16:59:38.422Z,17.23
2019-01-08T17:02:04.751Z,18.40
2019-01-08T17:04:30.960Z,18.50
2019-01-08T17:06:57.187Z,20.87
2019-01-08T17:09:23.401Z,14.37
2019-01-08T17:11:49.628Z,19.03
2019-01-08T17:14:16.011Z,12.00
2019-01-08T17:16:42.334Z,18.43
2019-01-08T17:19:08.653Z,18.83
2019-01-08T17:21:34.863Z,15.00
2019-01-08T17:24:01.117Z,18.23
2019-01-08T17:26:27.481Z,14.73
2019-01-08T17:28:53.774Z,21.77
2019-01-08T17:31:19.998Z,13.37
2019-01-08T17:33:46.237Z,13.60
2019-01-08T17:36:12.536Z,16.00
2019-01-08T17:38:38.763Z,13.33
2019-01-08T17:41:04.976Z,16.03
2019-01-08T17:43:33.715Z,17.50
2019-01-08T17:45:59.580Z,13.73
2019-01-08T17:48:25.798Z,13.60
2019-01-08T17:50:51.999Z,13.20
2019-01-08T17:53:18.193Z,17.83
2019-01-08T17:55:44.517Z,16.07
2019-01-08T17:58:34.390Z,14.50
2019-01-08T18:01:04.195Z,14.93
2019-01-08T18:03:30.402Z,18.00
2019-01-08T18:05:56.614Z,16.63
2019-01-08T18:08:22.818Z,16.00
2019-01-08T18:10:49.038Z,12.77
2019-01-08T18:13:15.599Z,14.87
2019-01-08T18:15:42.013Z,15.60
2019-01-08T18:18:08.218Z,17.10
2019-01-08T18:20:34.443Z,16.70
2019-01-08T18:23:00.752Z,15.13
2019-01-08T18:25:26.959Z,20.13
2019-01-08T18:27:53.173Z,15.10
2019-01-08T18:30:19.427Z,16.27
2019-01-08T18:32:45.649Z,15.37
2019-01-08T18:35:12.059Z,20.73
2019-01-08T18:37:38.279Z,15.23
2019-01-08T18:40:05.004Z,15.20
2019-01-08T18:42:31.223Z,16.83
2019-01-08T18:44:57.642Z,14.20
2019-01-08T18:47:23.861Z,16.73
2019-01-08T18:49:50.202Z,16.70
2019-01-08T18:52:16.438Z,12.93
2019-01-08T18:54:42.642Z,14.77
2019-01-08T18:57:09.941Z,14.83
2019-01-08T18:59:36.150Z,14.00
2019-01-08T19:02:02.490Z,15.13
2019-01-08T19:04:28.694Z,17.37
2019-01-08T19:06:54.903Z,10.03
2019-01-08T19:09:27.372Z,12.57
2019-01-08T19:11:53.971Z,8.13
2019-01-08T19:14:23.394Z,8.87
2019-01-08T19:16:49.599Z,15.90
2019-01-08T19:19:15.819Z,13.43
2019-01-08T19:21:42.018Z,14.80
2019-01-08T19:24:08.331Z,17.10
2019-01-08T19:26:34.534Z,15.03
2019-01-08T19:29:00.756Z,15.77
2019-01-08T19:31:26.950Z,12.50
2019-01-08T19:33:53.208Z,11.07
2019-01-08T19:36:19.409Z,12.83
2019-01-08T19:38:45.627Z,15.57
2019-01-08T19:41:11.830Z,25.13
2019-01-08T19:43:38.050Z,18.10
2019-01-08T19:46:04.286Z,17.23
2019-01-08T19:48:30.617Z,18.30
2019-01-08T19:50:56.855Z,15.80
2019-01-08T19:53:23.150Z,14.97
2019-01-08T19:55:49.384Z,15.17
2019-01-08T19:58:15.610Z,13.50
2019-01-08T20:00:41.882Z,22.43
2019-01-08T20:03:08.172Z,15.47
2019-01-08T20:05:34.434Z,17.27
2019-01-08T20:08:00.638Z,17.93
2019-01-08T20:10:26.862Z,15.27
2019-01-08T20:12:53.081Z,15.40
2019-01-08T20:15:19.288Z,21.37
2019-01-08T20:17:45.528Z,12.47
2019-01-08T20:20:11.850Z,17.97
2019-01-08T20:22:38.760Z,16.83
2019-01-08T20:25:04.968Z,20.57
2019-01-08T20:27:32.577Z,13.87
2019-01-08T20:29:59.027Z,14.97
2019-01-08T20:32:25.306Z,16.13
2019-01-08T20:34:51.523Z,18.97
2019-01-08T20:37:17.914Z,24.87
2019-01-08T20:39:44.277Z,17.77
2019-01-08T20:42:10.501Z,19.07
2019-01-08T20:44:36.786Z,15.03
2019-01-08T20:47:03.146Z,23.53
2019-01-08T20:49:29.527Z,11.07
2019-01-08T20:51:55.743Z,19.27
2019-01-08T20:54:21.958Z,17.90
2019-01-08T20:56:48.167Z,14.97
2019-01-08T20:59:14.386Z,15.63
2019-01-08T21:01:40.590Z,17.03
2019-01-08T21:04:06.826Z,13.67
2019-01-08T21:06:33.238Z,14.13
2019-01-08T21:08:59.453Z,16.87
2019-01-08T21:11:25.650Z,16.43
2019-01-08T21:13:51.863Z,16.60
2019-01-08T21:16:18.133Z,12.93
2019-01-08T21:18:44.387Z,13.73
2019-01-08T21:21:10.601Z,17.20
2019-01-08T21:23:36.816Z,18.50
2019-01-08T21:26:03.022Z,16.53
2019-01-08T21:28:31.357Z,15.87
2019-01-08T21:30:57.355Z,17.97
2019-01-08T21:33:23.553Z,18.97
2019-01-08T21:35:49.795Z,15.77
2019-01-08T21:38:15.995Z,15.53
2019-01-08T21:40:42.217Z,18.20
2019-01-08T21:43:08.426Z,18.40
2019-01-08T21:45:34.621Z,17.97
2019-01-08T21:48:00.870Z,16.97
2019-01-08T21:50:27.086Z,20.73
2019-01-08T21:52:53.302Z,18.43
2019-01-08T21:55:19.506Z,17.37
2019-01-08T21:57:45.730Z,14.90
2019-01-08T22:00:11.934Z,15.37
2019-01-08T22:02:38.149Z,18.50
2019-01-08T22:05:05.267Z,15.97
2019-01-08T22:07:31.699Z,16.67
2019-01-08T22:09:58.003Z,15.80
2019-01-08T22:12:24.253Z,12.60
2019-01-08T22:14:50.458Z,17.93
2019-01-08T22:17:17.181Z,20.17
2019-01-08T22:19:43.448Z,13.03
2019-01-08T22:22:09.653Z,17.80
2019-01-08T22:24:35.982Z,16.33
2019-01-08T22:27:02.186Z,14.40
2019-01-08T22:29:28.399Z,18.70
2019-01-08T22:31:54.597Z,16.77
2019-01-08T22:34:20.825Z,14.50
2019-01-08T22:36:47.029Z,15.83
2019-01-08T22:39:13.251Z,19.63
2019-01-08T22:41:39.655Z,15.50
2019-01-08T22:44:05.890Z,17.27
2019-01-08T22:46:32.390Z,13.70
2019-01-08T22:48:58.638Z,20.47
2019-01-08T22:51:24.834Z,17.87
2019-01-08T22:53:51.033Z,17.10
2019-01-08T22:56:17.263Z,13.17
2019-01-08T22:58:43.574Z,20.10
2019-01-08T23:01:14.735Z,13.63
2019-01-08T23:03:40.938Z,19.63
2019-01-08T23:06:07.338Z,12.77
2019-01-08T23:08:35.072Z,17.23
2019-01-08T23:11:01.299Z,17.73
2019-01-08T23:13:27.702Z,20.77
2019-01-08T23:15:54.328Z,16.83
2019-01-08T23:18:21.534Z,17.47
2019-01-08T23:20:47.738Z,16.60
2019-01-08T23:23:14.054Z,11.17
2019-01-08T23:25:40.254Z,15.80
2019-01-08T23:28:06.482Z,23.37
2019-01-08T23:30:32.878Z,13.97
2019-01-08T23:32:59.207Z,11.83
2019-01-08T23:35:25.624Z,17.07
2019-01-08T23:37:51.841Z,16.00
2019-01-08T23:40:18.050Z,18.50
2019-01-08T23:42:44.257Z,12.80
2019-01-08T23:45:10.578Z,15.60
2019-01-08T23:47:36.990Z,20.33
2019-01-08T23:50:05.326Z,20.87
2019-01-08T23:52:38.343Z,15.63
2019-01-08T23:55:05.468Z,17.13
2019-01-08T23:57:34.887Z,12.07
